createdAt,value
2023-05-20T00:01:52.516Z,11.20
2023-05-20T00:04:23.022Z,11.80
2023-05-20T00:06:54.799Z,11.00
2023-05-20T00:09:25.317Z,10.20
2023-05-20T00:11:55.777Z,10.20
2023-05-20T00:14:26.302Z,10.00
2023-05-20T00:16:56.819Z,11.00
2023-05-20T00:19:27.351Z,10.70
2023-05-20T00:21:58.053Z,10.00
2023-05-20T00:24:28.605Z,10.40
2023-05-20T00:26:58.901Z,11.20
2023-05-20T00:29:29.598Z,10.50
2023-05-20T00:32:00.519Z,10.80
2023-05-20T00:34:31.037Z,11.20
2023-05-20T00:37:01.355Z,11.70
2023-05-20T00:39:31.780Z,10.30
2023-05-20T00:42:03.563Z,10.50
2023-05-20T00:44:33.929Z,10.30
2023-05-20T00:47:04.416Z,10.70
2023-05-20T00:49:34.921Z,10.80
2023-05-20T00:52:06.033Z,10.60
2023-05-20T00:54:37.172Z,10.90
2023-05-20T00:57:08.503Z,9.90
2023-05-20T00:59:39.887Z,10.00
2023-05-20T01:02:11.077Z,10.40
2023-05-20T01:04:46.506Z,12.00
2023-05-20T01:07:19.051Z,11.70
2023-05-20T01:09:50.633Z,10.70
2023-05-20T01:12:28.195Z,11.60
2023-05-20T01:15:00.861Z,10.90
2023-05-20T01:17:38.100Z,13.50
2023-05-20T01:20:12.497Z,10.70
2023-05-20T01:22:50.049Z,10.50
2023-05-20T01:25:20.671Z,11.50
2023-05-20T01:27:52.782Z,10.00
2023-05-20T01:30:23.714Z,10.30
2023-05-20T01:33:07.106Z,10.70
2023-05-20T01:35:37.668Z,12.00
2023-05-20T01:38:09.420Z,13.00
2023-05-20T01:40:41.905Z,9.50
2023-05-20T01:43:13.422Z,10.00
2023-05-20T01:45:46.087Z,8.80
2023-05-20T01:48:17.544Z,8.20
2023-05-20T01:50:47.974Z,9.50
2023-05-20T01:53:18.330Z,9.30
2023-05-20T01:55:48.655Z,9.10
2023-05-20T01:58:19.061Z,7.70
2023-05-20T02:00:49.801Z,9.60
2023-05-20T02:03:20.255Z,9.60
2023-05-20T02:05:50.735Z,9.10
2023-05-20T02:08:21.226Z,9.00
2023-05-20T02:10:51.944Z,8.50
2023-05-20T02:13:22.294Z,9.60
2023-05-20T02:15:53.389Z,8.80
2023-05-20T02:18:26.687Z,9.40
2023-05-20T02:20:57.281Z,7.70
2023-05-20T02:23:27.688Z,8.80
2023-05-20T02:25:58.049Z,9.40
2023-05-20T02:28:28.528Z,10.30
2023-05-20T02:30:58.977Z,9.60
2023-05-20T02:33:29.753Z,9.30
2023-05-20T02:36:00.316Z,10.40
2023-05-20T02:38:31.811Z,9.90
2023-05-20T02:41:04.703Z,9.90
2023-05-20T02:43:36.489Z,10.60
2023-05-20T02:46:06.976Z,10.30
2023-05-20T02:48:37.440Z,11.10
2023-05-20T02:51:08.245Z,10.50
2023-05-20T02:53:38.623Z,9.90
2023-05-20T02:56:10.031Z,9.10
2023-05-20T02:58:40.489Z,10.00
2023-05-20T03:01:11.042Z,8.60
2023-05-20T03:03:41.789Z,9.00
2023-05-20T03:06:12.490Z,9.60
2023-05-20T03:08:43.789Z,10.10
2023-05-20T03:11:14.211Z,8.50
2023-05-20T03:13:44.569Z,9.10
2023-05-20T03:16:15.002Z,9.10
2023-05-20T03:18:46.381Z,8.90
2023-05-20T03:21:16.918Z,10.30
2023-05-20T03:23:48.611Z,9.80
2023-05-20T03:26:18.937Z,9.30
2023-05-20T03:28:49.300Z,8.70
2023-05-20T03:31:21.159Z,9.80
2023-05-20T03:33:51.693Z,10.30
2023-05-20T03:36:22.137Z,9.70
2023-05-20T03:38:52.599Z,9.60
2023-05-20T03:41:24.257Z,9.10
2023-05-20T03:43:55.384Z,9.50
2023-05-20T03:46:25.914Z,9.00
2023-05-20T03:48:56.288Z,9.20
2023-05-20T03:51:27.528Z,11.30
2023-05-20T03:53:59.155Z,9.60
2023-05-20T03:56:29.611Z,9.60
2023-05-20T03:59:00.030Z,8.50
2023-05-20T04:01:30.495Z,9.10
2023-05-20T04:04:01.043Z,8.90
2023-05-20T04:06:31.654Z,7.80
2023-05-20T04:09:02.222Z,9.10
2023-05-20T04:11:32.624Z,9.20
2023-05-20T04:14:03.248Z,9.10
2023-05-20T04:16:34.173Z,8.70
2023-05-20T04:19:04.623Z,8.60
2023-05-20T04:21:35.296Z,9.40
2023-05-20T04:24:06.932Z,10.00
2023-05-20T04:26:37.685Z,9.90
2023-05-20T04:29:08.096Z,9.30
2023-05-20T04:31:39.385Z,9.20
2023-05-20T04:34:12.349Z,8.90
2023-05-20T04:36:43.643Z,8.30
2023-05-20T04:39:15.738Z,9.20
2023-05-20T04:41:47.470Z,9.10
2023-05-20T04:44:18.670Z,7.60
2023-05-20T04:46:49.068Z,9.10
2023-05-20T04:49:19.547Z,9.10
2023-05-20T04:51:50.062Z,9.10
2023-05-20T04:54:22.238Z,9.00
2023-05-20T04:56:53.406Z,9.10
2023-05-20T04:59:23.786Z,11.10
2023-05-20T05:01:54.598Z,8.80
2023-05-20T05:04:26.186Z,10.40
2023-05-20T05:06:56.988Z,8.90
2023-05-20T05:09:27.578Z,8.20
2023-05-20T05:11:58.168Z,9.50
2023-05-20T05:14:28.600Z,9.50
2023-05-20T05:16:59.452Z,10.50
2023-05-20T05:19:30.281Z,9.50
2023-05-20T05:22:00.762Z,7.80
2023-05-20T05:24:31.186Z,10.10
2023-05-20T05:27:01.682Z,9.70
2023-05-20T05:29:32.075Z,9.10
2023-05-20T05:32:02.801Z,10.20
2023-05-20T05:34:33.224Z,9.50
2023-05-20T05:37:03.623Z,10.10
2023-05-20T05:39:37.718Z,10.60
2023-05-20T05:42:08.722Z,10.50
2023-05-20T05:44:39.456Z,10.80
2023-05-20T05:47:10.954Z,11.70
2023-05-20T05:49:41.862Z,11.20
2023-05-20T05:52:12.530Z,10.40
2023-05-20T05:54:43.161Z,11.10
2023-05-20T05:57:13.607Z,11.30
2023-05-20T05:59:44.658Z,10.80
2023-05-20T06:02:15.669Z,9.40
2023-05-20T06:04:46.132Z,11.10
2023-05-20T06:07:16.530Z,11.60
2023-05-20T06:09:46.991Z,11.50
2023-05-20T06:12:17.406Z,11.20
2023-05-20T06:14:48.098Z,10.70
2023-05-20T06:17:18.530Z,10.70
2023-05-20T06:19:49.284Z,12.50
2023-05-20T06:22:20.787Z,10.80
2023-05-20T06:24:51.308Z,10.00
2023-05-20T06:27:22.080Z,10.40
2023-05-20T06:29:53.282Z,11.10
2023-05-20T06:32:23.712Z,8.20
2023-05-20T06:34:55.639Z,10.80
2023-05-20T06:37:26.636Z,9.60
2023-05-20T06:39:57.333Z,11.10
2023-05-20T06:42:27.733Z,11.10
2023-05-20T06:45:10.376Z,12.40
2023-05-20T06:47:45.918Z,11.60
2023-05-20T06:50:16.709Z,9.90
2023-05-20T06:52:48.152Z,10.50
2023-05-20T06:55:19.795Z,12.00
2023-05-20T06:57:50.823Z,10.70
2023-05-20T07:00:22.431Z,11.50
2023-05-20T07:02:55.110Z,11.70
2023-05-20T07:05:25.908Z,11.20
2023-05-20T07:07:56.863Z,11.70
2023-05-20T07:10:27.664Z,11.60
2023-05-20T07:12:58.148Z,12.70
2023-05-20T07:15:29.379Z,11.60
2023-05-20T07:18:02.164Z,12.30
2023-05-20T07:20:33.376Z,12.40
2023-05-20T07:23:08.074Z,10.90
2023-05-20T07:25:45.807Z,10.80
2023-05-20T07:28:18.296Z,11.60
2023-05-20T07:30:50.998Z,10.00
2023-05-20T07:33:27.891Z,11.90
2023-05-20T07:35:58.360Z,11.60
2023-05-20T07:38:28.857Z,10.90
2023-05-20T07:41:03.300Z,10.30
2023-05-20T07:43:34.347Z,10.30
2023-05-20T07:46:05.845Z,11.50
2023-05-20T07:48:36.230Z,9.50
2023-05-20T07:51:07.069Z,9.70
2023-05-20T07:53:38.285Z,9.80
2023-05-20T07:56:09.251Z,10.60
2023-05-20T07:58:43.811Z,12.10
2023-05-20T08:01:14.512Z,10.10
2023-05-20T08:03:45.506Z,10.40
2023-05-20T08:06:21.508Z,10.20
2023-05-20T08:08:54.264Z,9.80
2023-05-20T08:11:31.361Z,10.40
2023-05-20T08:14:02.213Z,9.70
2023-05-20T08:16:34.609Z,8.90
2023-05-20T08:19:05.472Z,9.20
2023-05-20T08:21:36.332Z,9.80
2023-05-20T08:24:08.009Z,8.20
2023-05-20T08:26:38.943Z,8.80
2023-05-20T08:29:09.584Z,8.30
2023-05-20T08:31:40.047Z,8.60
2023-05-20T08:34:10.753Z,7.90
2023-05-20T08:36:42.380Z,9.20
2023-05-20T08:39:13.946Z,8.50
2023-05-20T08:41:44.861Z,7.50
2023-05-20T08:44:16.039Z,8.00
2023-05-20T08:46:47.586Z,7.50
2023-05-20T08:49:18.544Z,7.40
2023-05-20T08:51:49.340Z,8.70
2023-05-20T08:54:24.021Z,7.30
2023-05-20T08:56:56.004Z,8.30
2023-05-20T08:59:26.406Z,6.80
2023-05-20T09:01:57.226Z,7.10
2023-05-20T09:04:27.679Z,7.00
2023-05-20T09:06:58.047Z,7.50
2023-05-20T09:09:28.409Z,6.30
2023-05-20T09:11:58.724Z,6.90
2023-05-20T09:14:29.081Z,6.60
2023-05-20T09:16:59.418Z,6.60
2023-05-20T09:19:29.897Z,6.50
2023-05-20T09:22:00.924Z,6.20
2023-05-20T09:24:31.316Z,6.00
2023-05-20T09:27:01.684Z,6.10
2023-05-20T09:29:35.902Z,5.90
2023-05-20T09:32:07.707Z,6.20
2023-05-20T09:34:38.474Z,5.60
2023-05-20T09:37:10.086Z,6.10
2023-05-20T09:39:49.689Z,5.50
2023-05-20T09:42:26.583Z,5.80
2023-05-20T09:44:58.250Z,5.40
2023-05-20T09:47:29.428Z,5.00
2023-05-20T09:50:00.724Z,4.90
2023-05-20T09:52:31.991Z,4.50
2023-05-20T09:55:06.663Z,5.20
2023-05-20T09:57:38.714Z,4.60
2023-05-20T10:00:10.631Z,4.70
2023-05-20T10:02:47.714Z,5.10
2023-05-20T10:05:21.108Z,4.00
2023-05-20T10:08:17.839Z,4.90
2023-05-20T10:10:51.921Z,4.90
2023-05-20T10:13:51.913Z,3.70
2023-05-20T10:16:34.225Z,4.70
2023-05-20T10:19:12.667Z,4.60
2023-05-20T10:21:43.068Z,4.60
2023-05-20T10:24:14.014Z,4.60
2023-05-20T10:26:44.787Z,4.60
2023-05-20T10:29:20.180Z,4.20
2023-05-20T10:31:53.682Z,4.60
2023-05-20T10:34:24.758Z,5.50
2023-05-20T10:37:01.577Z,5.90
2023-05-20T10:42:12.316Z,4.50
2023-05-20T10:44:47.290Z,5.00
2023-05-20T10:47:25.416Z,4.40
2023-05-20T10:49:56.515Z,5.10
2023-05-20T10:52:27.463Z,5.60
2023-05-20T10:55:02.130Z,5.20
2023-05-20T10:57:33.216Z,5.10
2023-05-20T11:00:06.025Z,5.00
2023-05-20T11:02:37.330Z,4.50
2023-05-20T11:05:12.523Z,5.30
2023-05-20T11:07:42.917Z,5.80
2023-05-20T11:10:13.964Z,5.50
2023-05-20T11:12:44.476Z,5.50
2023-05-20T11:15:15.664Z,5.80
2023-05-20T11:17:56.799Z,5.80
2023-05-20T11:20:28.182Z,6.10
2023-05-20T11:22:58.641Z,5.90
2023-05-20T11:25:29.327Z,6.40
2023-05-20T11:28:00.709Z,6.50
2023-05-20T11:30:33.431Z,5.50
2023-05-20T11:33:06.211Z,5.70
2023-05-20T11:35:36.717Z,5.60
2023-05-20T11:38:09.380Z,5.50
2023-05-20T11:40:50.384Z,5.80
2023-05-20T11:43:22.061Z,6.40
2023-05-20T11:45:59.292Z,7.10
2023-05-20T11:48:30.091Z,6.50
2023-05-20T11:51:02.018Z,6.60
2023-05-20T11:53:32.814Z,6.70
2023-05-20T11:56:04.304Z,6.00
2023-05-20T11:58:34.811Z,6.40
2023-05-20T12:01:17.883Z,5.70
2023-05-20T12:03:52.757Z,6.10
2023-05-20T12:06:23.580Z,5.70
2023-05-20T12:08:53.928Z,6.50
2023-05-20T12:11:24.307Z,6.20
2023-05-20T12:13:55.330Z,7.30
2023-05-20T12:16:25.840Z,5.50
2023-05-20T12:18:56.475Z,6.10
2023-05-20T12:21:27.122Z,6.10
2023-05-20T12:23:58.299Z,6.70
2023-05-20T12:26:30.079Z,6.70
2023-05-20T12:29:00.682Z,7.10
2023-05-20T12:31:33.821Z,7.10
2023-05-20T12:34:05.196Z,6.10
2023-05-20T12:36:35.578Z,6.70
2023-05-20T12:39:06.311Z,6.30
2023-05-20T12:41:36.656Z,6.20
2023-05-20T12:44:07.111Z,7.10
2023-05-20T12:46:38.619Z,7.00
2023-05-20T12:49:09.377Z,6.80
2023-05-20T12:51:39.725Z,6.40
2023-05-20T12:54:10.024Z,7.10
2023-05-20T12:56:40.616Z,7.90
2023-05-20T12:59:11.147Z,7.40
2023-05-20T13:01:41.641Z,7.50
2023-05-20T13:04:12.104Z,8.40
2023-05-20T13:06:43.147Z,8.30
2023-05-20T13:09:13.705Z,9.10
2023-05-20T13:11:44.061Z,8.50
2023-05-20T13:14:16.902Z,8.00
2023-05-20T13:16:48.215Z,8.30
2023-05-20T13:19:18.633Z,8.80
2023-05-20T13:21:49.207Z,7.60
2023-05-20T13:24:19.980Z,8.40
2023-05-20T13:26:50.305Z,8.80
2023-05-20T13:29:20.751Z,8.50
2023-05-20T13:31:51.210Z,7.80
2023-05-20T13:34:22.024Z,7.70
2023-05-20T13:36:52.468Z,7.10
2023-05-20T13:39:22.835Z,8.70
2023-05-20T13:41:55.123Z,8.00
2023-05-20T13:44:25.693Z,7.90
2023-05-20T13:46:56.279Z,8.10
2023-05-20T13:49:26.666Z,7.60
2023-05-20T13:51:57.025Z,8.20
2023-05-20T13:54:27.446Z,7.60
2023-05-20T13:56:57.904Z,7.80
2023-05-20T13:59:28.476Z,8.30
2023-05-20T14:01:58.955Z,7.90
2023-05-20T14:04:31.344Z,7.80
2023-05-20T14:07:01.921Z,8.20
2023-05-20T14:09:32.369Z,8.00
2023-05-20T14:12:02.830Z,8.10
2023-05-20T14:14:33.214Z,8.50
2023-05-20T14:17:03.698Z,8.30
2023-05-20T14:19:34.145Z,8.70
2023-05-20T14:22:04.747Z,8.90
2023-05-20T14:24:35.083Z,8.70
2023-05-20T14:27:06.181Z,8.20
2023-05-20T14:29:36.527Z,7.90
2023-05-20T14:32:08.995Z,8.30
2023-05-20T14:34:39.356Z,8.90
2023-05-20T14:37:11.993Z,8.50
2023-05-20T14:39:42.706Z,8.30
2023-05-20T14:42:13.147Z,8.20
2023-05-20T14:44:43.505Z,7.40
2023-05-20T14:47:16.889Z,8.30
2023-05-20T14:49:50.067Z,7.60
2023-05-20T14:52:20.893Z,7.90
2023-05-20T14:54:51.326Z,8.70
2023-05-20T14:57:21.847Z,8.50
2023-05-20T14:59:52.710Z,8.50
2023-05-20T15:02:23.146Z,8.50
2023-05-20T15:04:53.589Z,8.00
2023-05-20T15:07:23.903Z,6.90
2023-05-20T15:09:54.285Z,7.10
2023-05-20T15:12:24.610Z,7.50
2023-05-20T15:14:55.018Z,6.80
2023-05-20T15:17:25.581Z,7.20
2023-05-20T15:19:56.084Z,7.40
2023-05-20T15:22:26.486Z,6.60
2023-05-20T15:24:56.841Z,6.40
2023-05-20T15:27:27.276Z,6.90
2023-05-20T15:29:57.708Z,6.50
2023-05-20T15:32:28.200Z,6.30
2023-05-20T15:34:58.667Z,7.00
2023-05-20T15:37:29.109Z,7.80
2023-05-20T15:39:59.471Z,7.80
2023-05-20T15:42:29.997Z,8.40
2023-05-20T15:45:00.397Z,8.50
2023-05-20T15:47:30.841Z,8.20
2023-05-20T15:50:02.315Z,8.70
2023-05-20T15:52:32.879Z,8.00
2023-05-20T15:55:03.593Z,8.30
2023-05-20T15:57:33.989Z,8.80
2023-05-20T16:00:10.075Z,9.00
2023-05-20T16:05:11.380Z,9.50
2023-05-20T16:07:42.471Z,8.80
2023-05-20T16:10:13.497Z,8.70
2023-05-20T16:12:44.588Z,9.20
2023-05-20T16:15:16.001Z,9.70
2023-05-20T16:17:46.423Z,11.30
2023-05-20T16:20:16.825Z,10.30
2023-05-20T16:22:47.204Z,9.20
2023-05-20T16:25:17.631Z,10.60
2023-05-20T16:27:48.060Z,11.10
2023-05-20T16:30:18.451Z,10.10
2023-05-20T16:32:48.891Z,11.20
2023-05-20T16:35:19.583Z,10.40
2023-05-20T16:37:49.999Z,11.10
2023-05-20T16:40:20.412Z,11.00
2023-05-20T16:42:50.840Z,10.80
2023-05-20T16:45:21.368Z,11.60
2023-05-20T16:47:52.035Z,11.40
2023-05-20T16:50:22.488Z,10.60
2023-05-20T16:52:53.928Z,11.90
2023-05-20T16:55:24.381Z,11.10
2023-05-20T16:57:54.858Z,11.10
2023-05-20T17:00:25.479Z,11.90
2023-05-20T17:02:55.879Z,11.50
2023-05-20T17:05:26.276Z,11.60
2023-05-20T17:08:00.108Z,11.60
2023-05-20T17:10:30.687Z,11.20
2023-05-20T17:13:01.156Z,11.60
2023-05-20T17:15:32.809Z,11.20
2023-05-20T17:18:03.214Z,12.60
2023-05-20T17:20:34.275Z,12.40
2023-05-20T17:23:04.898Z,11.50
2023-05-20T17:25:35.234Z,12.50
2023-05-20T17:28:06.159Z,11.70
2023-05-20T17:30:36.735Z,13.10
2023-05-20T17:33:07.547Z,11.60
2023-05-20T17:35:38.114Z,13.60
2023-05-20T17:38:08.618Z,13.30
2023-05-20T17:40:39.367Z,13.10
2023-05-20T17:43:09.800Z,12.50
2023-05-20T17:45:40.198Z,12.60
2023-05-20T17:48:11.934Z,13.30
2023-05-20T17:50:42.613Z,12.70
2023-05-20T17:53:12.989Z,13.20
2023-05-20T17:55:47.133Z,13.30
2023-05-20T17:58:17.826Z,12.60
2023-05-20T18:00:48.554Z,12.70
2023-05-20T18:03:19.242Z,13.60
2023-05-20T18:05:49.801Z,14.30
2023-05-20T18:08:21.527Z,15.50
2023-05-20T18:10:52.452Z,15.90
2023-05-20T18:13:22.820Z,16.60
2023-05-20T18:15:53.272Z,14.30
2023-05-20T18:18:23.629Z,15.10
2023-05-20T18:20:54.110Z,15.60
2023-05-20T18:23:24.517Z,16.40
2023-05-20T18:25:54.851Z,16.10
2023-05-20T18:28:25.253Z,17.30
2023-05-20T18:30:57.523Z,16.90
2023-05-20T18:33:28.056Z,19.60
2023-05-20T18:35:58.531Z,19.10
2023-05-20T18:38:28.911Z,19.80
2023-05-20T18:40:59.310Z,20.40
2023-05-20T18:43:29.881Z,22.10
2023-05-20T18:46:00.396Z,22.50
2023-05-20T18:48:30.972Z,19.90
2023-05-20T18:51:01.410Z,22.00
2023-05-20T18:53:31.953Z,23.10
2023-05-20T18:56:03.248Z,25.10
2023-05-20T18:58:33.685Z,25.20
2023-05-20T19:01:04.283Z,24.60
2023-05-20T19:03:34.682Z,25.10
2023-05-20T19:06:05.279Z,26.30
2023-05-20T19:08:35.785Z,23.60
2023-05-20T19:11:06.333Z,22.00
2023-05-20T19:13:36.813Z,22.90
2023-05-20T19:16:07.665Z,22.10
2023-05-20T19:18:39.287Z,23.30
2023-05-20T19:21:09.955Z,22.90
2023-05-20T19:23:40.973Z,23.70
2023-05-20T19:26:11.931Z,22.40
2023-05-20T19:28:42.304Z,23.20
2023-05-20T19:31:12.738Z,21.50
2023-05-20T19:33:43.193Z,22.00
2023-05-20T19:36:13.543Z,22.80
2023-05-20T19:38:44.585Z,21.70
2023-05-20T19:41:15.162Z,22.40
2023-05-20T19:43:45.557Z,20.90
2023-05-20T19:46:16.620Z,20.70
2023-05-20T19:48:47.179Z,21.40
2023-05-20T19:51:17.959Z,20.10
2023-05-20T19:53:48.291Z,20.70
2023-05-20T19:56:20.114Z,19.80
2023-05-20T19:58:50.924Z,20.70
2023-05-20T20:01:21.682Z,21.30
2023-05-20T20:03:52.428Z,20.30
2023-05-20T20:06:22.820Z,21.80
2023-05-20T20:08:53.193Z,21.30
2023-05-20T20:11:23.705Z,20.50
2023-05-20T20:13:54.038Z,20.20
2023-05-20T20:16:24.415Z,19.90
2023-05-20T20:18:55.290Z,21.80
2023-05-20T20:21:26.200Z,23.10
2023-05-20T20:23:56.562Z,22.60
2023-05-20T20:26:27.275Z,22.50
2023-05-20T20:28:57.633Z,21.40
2023-05-20T20:31:28.469Z,20.10
2023-05-20T20:33:58.931Z,21.50
2023-05-20T20:36:31.961Z,22.70
2023-05-20T20:39:04.831Z,22.30
2023-05-20T20:41:35.632Z,22.20
2023-05-20T20:44:07.416Z,21.60
2023-05-20T20:46:38.355Z,24.10
2023-05-20T20:49:08.739Z,24.30
2023-05-20T20:51:39.235Z,22.60
2023-05-20T20:54:10.700Z,22.00
2023-05-20T20:56:45.301Z,21.50
2023-05-20T20:59:16.673Z,17.70
2023-05-20T21:01:47.036Z,21.20
2023-05-20T21:04:17.868Z,20.10
2023-05-20T21:06:48.202Z,20.30
2023-05-20T21:09:18.619Z,20.40
2023-05-20T21:11:49.455Z,18.80
2023-05-20T21:14:19.956Z,19.50
2023-05-20T21:16:52.474Z,19.80
2023-05-20T21:19:23.191Z,25.40
2023-05-20T21:21:53.634Z,27.50
2023-05-20T21:24:24.184Z,27.80
2023-05-20T21:26:54.475Z,26.20
2023-05-20T21:29:24.909Z,26.20
2023-05-20T21:31:55.451Z,24.80
2023-05-20T21:34:25.822Z,25.50
2023-05-20T21:36:56.182Z,24.40
2023-05-20T21:39:26.520Z,24.60
2023-05-20T21:41:56.930Z,23.00
2023-05-20T21:44:27.287Z,22.40
2023-05-20T21:46:57.653Z,23.80
2023-05-20T21:49:28.006Z,23.50
2023-05-20T21:51:58.381Z,22.10
2023-05-20T21:54:28.767Z,22.90
2023-05-20T21:56:59.212Z,23.20
2023-05-20T21:59:29.638Z,21.20
2023-05-20T22:02:01.191Z,21.70
2023-05-20T22:04:33.482Z,21.30
2023-05-20T22:07:03.958Z,21.40
2023-05-20T22:09:34.305Z,21.70
2023-05-20T22:12:04.972Z,23.60
2023-05-20T22:14:35.521Z,22.40
2023-05-20T22:17:06.123Z,24.00
2023-05-20T22:19:36.528Z,21.60
2023-05-20T22:22:07.045Z,23.10
2023-05-20T22:24:37.349Z,24.50
2023-05-20T22:27:10.910Z,23.30
2023-05-20T22:29:41.296Z,21.20
2023-05-20T22:32:11.647Z,20.80
2023-05-20T22:34:41.983Z,23.00
2023-05-20T22:37:15.865Z,22.80
2023-05-20T22:39:46.658Z,20.90
2023-05-20T22:42:17.082Z,21.50
2023-05-20T22:44:47.712Z,23.40
2023-05-20T22:47:18.080Z,21.80
2023-05-20T22:49:48.523Z,22.80
2023-05-20T22:52:21.250Z,21.40
2023-05-20T22:54:51.982Z,20.50
2023-05-20T22:57:22.420Z,20.00
2023-05-20T22:59:54.005Z,20.40
2023-05-20T23:02:24.490Z,18.70
2023-05-20T23:04:54.867Z,18.80
2023-05-20T23:07:27.934Z,20.40
2023-05-20T23:09:58.347Z,21.40
2023-05-20T23:12:28.756Z,21.40
2023-05-20T23:14:59.100Z,24.10
2023-05-20T23:17:29.492Z,26.10
2023-05-20T23:19:59.910Z,23.50
2023-05-20T23:22:30.295Z,23.50
2023-05-20T23:25:02.358Z,21.30
2023-05-20T23:27:32.748Z,20.10
2023-05-20T23:30:03.066Z,21.30
2023-05-20T23:32:33.464Z,19.80
2023-05-20T23:35:04.758Z,22.40
2023-05-20T23:37:35.562Z,17.30
2023-05-20T23:40:09.207Z,19.20
2023-05-20T23:42:39.811Z,17.50
2023-05-20T23:45:12.476Z,18.00
2023-05-20T23:47:43.702Z,16.80
2023-05-20T23:50:14.731Z,16.70
2023-05-20T23:52:46.354Z,17.70
2023-05-20T23:55:18.329Z,16.90
2023-05-20T23:57:49.804Z,16.40
